sensor_id;sensor_type;location;lat;lon;timestamp;pressure;altitude;pressure_sealevel;temperature;humidity
54592;BME280;40488;48.558;18.150;2023-03-16T00:02:24;99754.63;;;1.28;66.48
54592;BME280;40488;48.558;18.150;2023-03-16T00:04:52;99754.50;;;1.25;66.73
54592;BME280;40488;48.558;18.150;2023-03-16T00:07:21;99753.47;;;1.20;66.94
54592;BME280;40488;48.558;18.150;2023-03-16T00:09:50;99747.69;;;1.23;66.60
54592;BME280;40488;48.558;18.150;2023-03-16T00:12:21;99753.56;;;1.22;67.07
54592;BME280;40488;48.558;18.150;2023-03-16T00:14:51;99752.72;;;1.23;67.28
54592;BME280;40488;48.558;18.150;2023-03-16T00:17:20;99748.13;;;1.33;67.09
54592;BME280;40488;48.558;18.150;2023-03-16T00:19:50;99759.25;;;1.40;67.60
54592;BME280;40488;48.558;18.150;2023-03-16T00:22:21;99763.66;;;1.46;67.72
54592;BME280;40488;48.558;18.150;2023-03-16T00:24:50;99758.81;;;1.52;67.67
54592;BME280;40488;48.558;18.150;2023-03-16T00:27:19;99762.25;;;1.54;67.73
54592;BME280;40488;48.558;18.150;2023-03-16T00:29:51;99761.47;;;1.55;67.38
54592;BME280;40488;48.558;18.150;2023-03-16T00:32:23;99764.13;;;1.59;67.57
54592;BME280;40488;48.558;18.150;2023-03-16T00:34:53;99776.81;;;1.62;67.67
54592;BME280;40488;48.558;18.150;2023-03-16T00:37:22;99772.75;;;1.66;67.88
54592;BME280;40488;48.558;18.150;2023-03-16T00:39:51;99775.34;;;1.67;67.94
54592;BME280;40488;48.558;18.150;2023-03-16T00:42:23;99767.94;;;1.72;67.16
54592;BME280;40488;48.558;18.150;2023-03-16T00:44:55;99767.25;;;1.76;67.55
54592;BME280;40488;48.558;18.150;2023-03-16T00:47:24;99767.41;;;1.80;68.13
54592;BME280;40488;48.558;18.150;2023-03-16T00:49:54;99769.28;;;1.86;67.79
54592;BME280;40488;48.558;18.150;2023-03-16T00:52:23;99770.34;;;1.92;67.76
54592;BME280;40488;48.558;18.150;2023-03-16T00:54:53;99769.56;;;1.93;67.04
54592;BME280;40488;48.558;18.150;2023-03-16T00:57:23;99777.16;;;1.95;67.07
54592;BME280;40488;48.558;18.150;2023-03-16T00:59:56;99772.38;;;2.02;67.00
54592;BME280;40488;48.558;18.150;2023-03-16T01:02:25;99774.38;;;2.11;67.77
54592;BME280;40488;48.558;18.150;2023-03-16T01:04:54;99778.00;;;2.19;66.91
54592;BME280;40488;48.558;18.150;2023-03-16T01:07:24;99776.38;;;2.21;66.78
54592;BME280;40488;48.558;18.150;2023-03-16T01:09:53;99779.78;;;2.23;67.39
54592;BME280;40488;48.558;18.150;2023-03-16T01:12:21;99783.13;;;2.22;66.66
54592;BME280;40488;48.558;18.150;2023-03-16T01:14:50;99784.19;;;2.29;67.61
54592;BME280;40488;48.558;18.150;2023-03-16T01:17:19;99780.88;;;2.30;67.64
54592;BME280;40488;48.558;18.150;2023-03-16T01:19:49;99786.00;;;2.33;67.54
54592;BME280;40488;48.558;18.150;2023-03-16T01:22:19;99789.47;;;2.36;67.67
54592;BME280;40488;48.558;18.150;2023-03-16T01:24:47;99783.66;;;2.37;66.67
54592;BME280;40488;48.558;18.150;2023-03-16T01:27:16;99789.53;;;2.38;67.54
54592;BME280;40488;48.558;18.150;2023-03-16T01:29:44;99781.94;;;2.36;67.71
54592;BME280;40488;48.558;18.150;2023-03-16T01:32:13;99771.09;;;2.39;67.78
54592;BME280;40488;48.558;18.150;2023-03-16T01:34:43;99776.19;;;2.40;67.29
54592;BME280;40488;48.558;18.150;2023-03-16T01:37:12;99782.03;;;2.39;67.69
54592;BME280;40488;48.558;18.150;2023-03-16T01:39:52;99788.47;;;2.31;67.53
54592;BME280;40488;48.558;18.150;2023-03-16T01:42:20;99789.88;;;2.23;68.29
54592;BME280;40488;48.558;18.150;2023-03-16T01:44:51;99797.22;;;2.17;68.25
54592;BME280;40488;48.558;18.150;2023-03-16T01:47:26;99792.06;;;2.14;67.88
54592;BME280;40488;48.558;18.150;2023-03-16T01:49:56;99792.91;;;2.13;68.21
54592;BME280;40488;48.558;18.150;2023-03-16T01:52:30;99791.16;;;2.12;68.79
54592;BME280;40488;48.558;18.150;2023-03-16T01:55:00;99791.28;;;2.15;69.24
54592;BME280;40488;48.558;18.150;2023-03-16T01:57:32;99797.94;;;2.13;69.29
54592;BME280;40488;48.558;18.150;2023-03-16T02:00:05;99804.59;;;2.11;68.98
54592;BME280;40488;48.558;18.150;2023-03-16T02:02:51;99801.47;;;2.18;68.85
54592;BME280;40488;48.558;18.150;2023-03-16T02:05:32;99804.78;;;2.17;69.01
54592;BME280;40488;48.558;18.150;2023-03-16T02:08:05;99809.09;;;2.21;69.52
54592;BME280;40488;48.558;18.150;2023-03-16T02:10:33;99818.56;;;2.28;69.14
54592;BME280;40488;48.558;18.150;2023-03-16T02:13:03;99815.47;;;2.35;69.86
54592;BME280;40488;48.558;18.150;2023-03-16T02:15:31;99814.66;;;2.36;69.91
54592;BME280;40488;48.558;18.150;2023-03-16T02:18:02;99822.34;;;2.39;69.64
54592;BME280;40488;48.558;18.150;2023-03-16T02:20:35;99829.06;;;2.40;70.18
54592;BME280;40488;48.558;18.150;2023-03-16T02:23:08;99833.34;;;2.43;70.15
54592;BME280;40488;48.558;18.150;2023-03-16T02:25:48;99831.66;;;2.42;69.40
54592;BME280;40488;48.558;18.150;2023-03-16T02:28:24;99839.13;;;2.40;70.46
54592;BME280;40488;48.558;18.150;2023-03-16T02:30:57;99835.81;;;2.41;70.53
54592;BME280;40488;48.558;18.150;2023-03-16T02:33:25;99844.13;;;2.39;69.97
54592;BME280;40488;48.558;18.150;2023-03-16T02:35:56;99844.69;;;2.30;70.16
54592;BME280;40488;48.558;18.150;2023-03-16T02:38:24;99845.66;;;2.35;70.83
54592;BME280;40488;48.558;18.150;2023-03-16T02:40:55;99839.06;;;2.37;70.66
54592;BME280;40488;48.558;18.150;2023-03-16T02:43:29;99848.47;;;2.43;70.79
54592;BME280;40488;48.558;18.150;2023-03-16T02:46:09;99845.19;;;2.45;71.26
54592;BME280;40488;48.558;18.150;2023-03-16T02:48:39;99854.78;;;2.55;70.46
54592;BME280;40488;48.558;18.150;2023-03-16T02:51:10;99853.28;;;2.60;70.79
54592;BME280;40488;48.558;18.150;2023-03-16T02:53:38;99854.88;;;2.58;70.73
54592;BME280;40488;48.558;18.150;2023-03-16T02:56:07;99853.97;;;2.56;70.47
54592;BME280;40488;48.558;18.150;2023-03-16T02:58:36;99856.56;;;2.59;70.66
54592;BME280;40488;48.558;18.150;2023-03-16T03:01:12;99864.06;;;2.56;70.77
54592;BME280;40488;48.558;18.150;2023-03-16T03:03:41;99855.47;;;2.51;70.61
54592;BME280;40488;48.558;18.150;2023-03-16T03:06:09;99870.78;;;2.57;70.01
54592;BME280;40488;48.558;18.150;2023-03-16T03:08:39;99871.63;;;2.56;69.88
54592;BME280;40488;48.558;18.150;2023-03-16T03:11:08;99874.13;;;2.56;70.70
54592;BME280;40488;48.558;18.150;2023-03-16T03:13:37;99871.63;;;2.56;69.79
54592;BME280;40488;48.558;18.150;2023-03-16T03:16:13;99881.78;;;2.59;70.57
54592;BME280;40488;48.558;18.150;2023-03-16T03:18:42;99874.22;;;2.59;69.58
54592;BME280;40488;48.558;18.150;2023-03-16T03:21:10;99884.38;;;2.61;69.91
54592;BME280;40488;48.558;18.150;2023-03-16T03:23:39;99883.59;;;2.63;70.16
54592;BME280;40488;48.558;18.150;2023-03-16T03:26:08;99897.97;;;2.66;68.91
54592;BME280;40488;48.558;18.150;2023-03-16T03:28:37;99905.38;;;2.61;68.93
54592;BME280;40488;48.558;18.150;2023-03-16T03:31:05;99904.34;;;2.56;69.31
54592;BME280;40488;48.558;18.150;2023-03-16T03:33:35;99906.59;;;2.49;68.75
54592;BME280;40488;48.558;18.150;2023-03-16T03:36:04;99901.19;;;2.38;68.91
54592;BME280;40488;48.558;18.150;2023-03-16T03:38:35;99907.50;;;2.27;69.66
54592;BME280;40488;48.558;18.150;2023-03-16T03:41:06;99912.22;;;2.18;69.68
54592;BME280;40488;48.558;18.150;2023-03-16T03:43:37;99920.13;;;2.05;69.17
54592;BME280;40488;48.558;18.150;2023-03-16T03:46:11;99923.22;;;1.98;70.16
54592;BME280;40488;48.558;18.150;2023-03-16T03:48:41;99925.28;;;1.86;70.23
54592;BME280;40488;48.558;18.150;2023-03-16T03:51:10;99922.56;;;1.80;69.71
54592;BME280;40488;48.558;18.150;2023-03-16T03:53:44;99927.38;;;1.75;70.13
54592;BME280;40488;48.558;18.150;2023-03-16T03:56:13;99933.91;;;1.70;70.49
54592;BME280;40488;48.558;18.150;2023-03-16T03:58:41;99939.69;;;1.68;70.53
54592;BME280;40488;48.558;18.150;2023-03-16T04:01:13;99935.31;;;1.64;70.28
54592;BME280;40488;48.558;18.150;2023-03-16T04:03:43;99942.78;;;1.61;70.46
54592;BME280;40488;48.558;18.150;2023-03-16T04:06:14;99943.44;;;1.57;70.14
54592;BME280;40488;48.558;18.150;2023-03-16T04:08:42;99942.47;;;1.53;70.18
54592;BME280;40488;48.558;18.150;2023-03-16T04:11:14;99959.91;;;1.49;70.22
54592;BME280;40488;48.558;18.150;2023-03-16T04:13:43;99957.94;;;1.42;70.49
54592;BME280;40488;48.558;18.150;2023-03-16T04:16:12;99962.56;;;1.32;70.92
54592;BME280;40488;48.558;18.150;2023-03-16T04:18:47;99966.81;;;1.33;70.32
54592;BME280;40488;48.558;18.150;2023-03-16T04:21:17;99963.81;;;1.21;71.13
54592;BME280;40488;48.558;18.150;2023-03-16T04:23:46;99961.84;;;1.14;71.39
54592;BME280;40488;48.558;18.150;2023-03-16T04:26:17;99962.75;;;1.16;71.74
54592;BME280;40488;48.558;18.150;2023-03-16T04:28:47;99973.59;;;1.15;71.74
54592;BME280;40488;48.558;18.150;2023-03-16T04:31:18;99963.53;;;1.15;71.51
54592;BME280;40488;48.558;18.150;2023-03-16T04:33:49;99965.22;;;1.15;71.94
54592;BME280;40488;48.558;18.150;2023-03-16T04:36:22;99962.53;;;1.10;71.40
54592;BME280;40488;48.558;18.150;2023-03-16T04:38:52;99970.91;;;1.11;71.82
54592;BME280;40488;48.558;18.150;2023-03-16T04:41:22;99966.50;;;1.05;71.92
54592;BME280;40488;48.558;18.150;2023-03-16T04:43:59;99969.78;;;1.04;71.61
54592;BME280;40488;48.558;18.150;2023-03-16T04:46:28;99964.63;;;1.01;71.76
54592;BME280;40488;48.558;18.150;2023-03-16T04:49:01;99960.47;;;1.02;72.15
54592;BME280;40488;48.558;18.150;2023-03-16T04:51:30;99969.66;;;1.01;72.29
54592;BME280;40488;48.558;18.150;2023-03-16T04:54:06;99967.78;;;0.96;71.96
54592;BME280;40488;48.558;18.150;2023-03-16T04:56:38;99969.28;;;0.92;72.05
54592;BME280;40488;48.558;18.150;2023-03-16T04:59:15;99962.53;;;0.91;71.60
54592;BME280;40488;48.558;18.150;2023-03-16T05:01:51;99969.88;;;0.87;71.92
54592;BME280;40488;48.558;18.150;2023-03-16T05:04:21;99965.47;;;0.81;72.43
54592;BME280;40488;48.558;18.150;2023-03-16T05:06:50;99972.19;;;0.82;71.93
54592;BME280;40488;48.558;18.150;2023-03-16T05:09:24;99976.13;;;0.76;72.23
54592;BME280;40488;48.558;18.150;2023-03-16T05:11:53;99985.28;;;0.75;71.81
54592;BME280;40488;48.558;18.150;2023-03-16T05:14:21;99991.66;;;0.67;72.08
54592;BME280;40488;48.558;18.150;2023-03-16T05:17:00;99985.78;;;0.66;72.99
54592;BME280;40488;48.558;18.150;2023-03-16T05:19:33;99996.78;;;0.70;72.53
54592;BME280;40488;48.558;18.150;2023-03-16T05:22:02;99999.50;;;0.75;72.65
54592;BME280;40488;48.558;18.150;2023-03-16T05:24:30;100001.22;;;0.76;73.15
54592;BME280;40488;48.558;18.150;2023-03-16T05:26:59;100007.13;;;0.76;72.80
54592;BME280;40488;48.558;18.150;2023-03-16T05:29:29;100004.94;;;0.84;73.25
54592;BME280;40488;48.558;18.150;2023-03-16T05:31:58;100008.69;;;0.93;72.76
54592;BME280;40488;48.558;18.150;2023-03-16T05:34:28;100012.31;;;1.00;73.19
54592;BME280;40488;48.558;18.150;2023-03-16T05:36:59;100017.72;;;1.09;73.06
54592;BME280;40488;48.558;18.150;2023-03-16T05:39:28;100017.00;;;1.11;73.19
54592;BME280;40488;48.558;18.150;2023-03-16T05:41:57;100032.34;;;1.17;72.55
54592;BME280;40488;48.558;18.150;2023-03-16T05:44:36;100036.50;;;1.17;72.73
54592;BME280;40488;48.558;18.150;2023-03-16T05:47:13;100030.84;;;1.22;72.73
54592;BME280;40488;48.558;18.150;2023-03-16T05:49:45;100037.63;;;1.23;72.12
54592;BME280;40488;48.558;18.150;2023-03-16T05:52:27;100034.44;;;1.27;72.29
54592;BME280;40488;48.558;18.150;2023-03-16T05:54:58;100036.53;;;1.38;72.84
54592;BME280;40488;48.558;18.150;2023-03-16T05:57:27;100047.34;;;1.56;72.39
54592;BME280;40488;48.558;18.150;2023-03-16T05:59:58;100049.69;;;1.72;71.70
54592;BME280;40488;48.558;18.150;2023-03-16T06:02:38;100047.53;;;1.81;71.43
54592;BME280;40488;48.558;18.150;2023-03-16T06:05:07;100051.66;;;1.79;71.41
54592;BME280;40488;48.558;18.150;2023-03-16T06:07:41;100055.75;;;1.77;71.60
54592;BME280;40488;48.558;18.150;2023-03-16T06:10:11;100057.72;;;1.84;71.94
54592;BME280;40488;48.558;18.150;2023-03-16T06:12:40;100063.16;;;1.94;71.38
54592;BME280;40488;48.558;18.150;2023-03-16T06:15:08;100065.63;;;1.93;71.37
54592;BME280;40488;48.558;18.150;2023-03-16T06:17:37;100065.63;;;1.93;71.51
54592;BME280;40488;48.558;18.150;2023-03-16T06:20:08;100064.16;;;1.98;71.01
54592;BME280;40488;48.558;18.150;2023-03-16T06:22:42;100071.84;;;2.01;70.61
54592;BME280;40488;48.558;18.150;2023-03-16T06:25:12;100079.19;;;1.96;71.02
54592;BME280;40488;48.558;18.150;2023-03-16T06:27:43;100081.22;;;2.05;71.08
54592;BME280;40488;48.558;18.150;2023-03-16T06:30:15;100085.47;;;2.06;70.41
54592;BME280;40488;48.558;18.150;2023-03-16T06:32:44;100088.19;;;2.12;71.27
54592;BME280;40488;48.558;18.150;2023-03-16T06:35:13;100088.81;;;2.27;70.91
54592;BME280;40488;48.558;18.150;2023-03-16T06:38:00;100084.34;;;2.42;70.83
54592;BME280;40488;48.558;18.150;2023-03-16T06:40:50;100093.97;;;2.75;70.38
54592;BME280;40488;48.558;18.150;2023-03-16T06:43:20;100101.22;;;3.13;69.84
54592;BME280;40488;48.558;18.150;2023-03-16T06:45:49;100102.06;;;3.35;69.28
54592;BME280;40488;48.558;18.150;2023-03-16T06:48:19;100106.75;;;3.50;69.44
54592;BME280;40488;48.558;18.150;2023-03-16T06:50:48;100112.59;;;3.74;68.50
54592;BME280;40488;48.558;18.150;2023-03-16T06:53:22;100112.22;;;4.13;67.86
54592;BME280;40488;48.558;18.150;2023-03-16T06:55:52;100121.25;;;4.33;67.47
54592;BME280;40488;48.558;18.150;2023-03-16T06:58:21;100117.75;;;4.56;66.83
54592;BME280;40488;48.558;18.150;2023-03-16T07:00:50;100118.22;;;4.71;66.20
54592;BME280;40488;48.558;18.150;2023-03-16T07:03:20;100117.94;;;4.90;65.04
54592;BME280;40488;48.558;18.150;2023-03-16T07:05:54;100115.00;;;5.06;64.37
54592;BME280;40488;48.558;18.150;2023-03-16T07:08:24;100125.75;;;5.27;63.20
54592;BME280;40488;48.558;18.150;2023-03-16T07:10:53;100130.28;;;5.39;62.46
54592;BME280;40488;48.558;18.150;2023-03-16T07:13:21;100133.06;;;5.50;61.38
54592;BME280;40488;48.558;18.150;2023-03-16T07:15:50;100132.31;;;5.52;60.73
54592;BME280;40488;48.558;18.150;2023-03-16T07:18:20;100138.31;;;5.56;59.92
54592;BME280;40488;48.558;18.150;2023-03-16T07:20:53;100127.53;;;5.63;59.21
54592;BME280;40488;48.558;18.150;2023-03-16T07:23:26;100135.44;;;5.75;59.30
54592;BME280;40488;48.558;18.150;2023-03-16T07:26:01;100137.75;;;5.97;59.52
54592;BME280;40488;48.558;18.150;2023-03-16T07:28:32;100140.78;;;6.17;58.60
54592;BME280;40488;48.558;18.150;2023-03-16T07:31:02;100143.41;;;6.21;57.50
54592;BME280;40488;48.558;18.150;2023-03-16T07:33:36;100146.28;;;6.36;57.28
54592;BME280;40488;48.558;18.150;2023-03-16T07:36:09;100157.59;;;6.50;56.58
54592;BME280;40488;48.558;18.150;2023-03-16T07:38:46;100158.53;;;6.54;56.24
54592;BME280;40488;48.558;18.150;2023-03-16T07:41:14;100153.50;;;6.55;55.52
54592;BME280;40488;48.558;18.150;2023-03-16T07:43:42;100157.59;;;6.50;54.33
54592;BME280;40488;48.558;18.150;2023-03-16T07:46:13;100151.28;;;6.69;54.07
54592;BME280;40488;48.558;18.150;2023-03-16T07:48:43;100150.88;;;6.90;54.61
54592;BME280;40488;48.558;18.150;2023-03-16T07:51:12;100160.84;;;6.81;54.19
54592;BME280;40488;48.558;18.150;2023-03-16T07:53:47;100158.03;;;6.68;53.80
54592;BME280;40488;48.558;18.150;2023-03-16T07:56:25;100162.91;;;6.59;52.83
54592;BME280;40488;48.558;18.150;2023-03-16T07:59:06;100156.78;;;6.50;51.46
54592;BME280;40488;48.558;18.150;2023-03-16T08:01:36;100155.31;;;6.61;50.83
54592;BME280;40488;48.558;18.150;2023-03-16T08:04:04;100166.13;;;6.52;50.58
54592;BME280;40488;48.558;18.150;2023-03-16T08:06:33;100165.59;;;6.31;49.88
54592;BME280;40488;48.558;18.150;2023-03-16T08:09:03;100169.47;;;6.17;49.70
54592;BME280;40488;48.558;18.150;2023-03-16T08:11:35;100169.44;;;6.16;49.24
54592;BME280;40488;48.558;18.150;2023-03-16T08:14:04;100159.28;;;6.14;49.30
54592;BME280;40488;48.558;18.150;2023-03-16T08:16:44;100161.81;;;6.14;49.19
54592;BME280;40488;48.558;18.150;2023-03-16T08:19:14;100162.72;;;6.16;49.09
54592;BME280;40488;48.558;18.150;2023-03-16T08:21:43;100160.00;;;6.10;49.26
54592;BME280;40488;48.558;18.150;2023-03-16T08:24:36;100169.69;;;5.92;49.60
54592;BME280;40488;48.558;18.150;2023-03-16T08:27:07;100167.28;;;5.96;50.06
54592;BME280;40488;48.558;18.150;2023-03-16T08:29:38;100175.13;;;6.07;50.08
54592;BME280;40488;48.558;18.150;2023-03-16T08:32:11;100173.19;;;6.31;49.57
54592;BME280;40488;48.558;18.150;2023-03-16T08:34:42;100169.63;;;6.57;49.60
54592;BME280;40488;48.558;18.150;2023-03-16T08:37:12;100168.44;;;6.81;47.98
54592;BME280;40488;48.558;18.150;2023-03-16T08:39:45;100176.47;;;6.61;46.43
54592;BME280;40488;48.558;18.150;2023-03-16T08:42:17;100166.41;;;6.64;46.68
54592;BME280;40488;48.558;18.150;2023-03-16T08:44:52;100170.84;;;6.74;46.56
54592;BME280;40488;48.558;18.150;2023-03-16T08:47:23;100172.84;;;6.89;46.58
54592;BME280;40488;48.558;18.150;2023-03-16T08:49:53;100165.47;;;7.00;45.60
54592;BME280;40488;48.558;18.150;2023-03-16T08:52:21;100161.88;;;7.30;45.66
54592;BME280;40488;48.558;18.150;2023-03-16T08:54:51;100162.81;;;7.34;45.61
54592;BME280;40488;48.558;18.150;2023-03-16T08:57:29;100167.22;;;7.44;44.93
54592;BME280;40488;48.558;18.150;2023-03-16T08:59:58;100165.78;;;7.57;44.43
54592;BME280;40488;48.558;18.150;2023-03-16T09:02:27;100168.56;;;7.70;44.10
54592;BME280;40488;48.558;18.150;2023-03-16T09:04:55;100168.72;;;7.78;43.58
54592;BME280;40488;48.558;18.150;2023-03-16T09:07:25;100167.53;;;7.61;43.63
54592;BME280;40488;48.558;18.150;2023-03-16T09:09:55;100171.78;;;7.60;43.63
54592;BME280;40488;48.558;18.150;2023-03-16T09:12:24;100171.25;;;7.76;43.30
54592;BME280;40488;48.558;18.150;2023-03-16T09:14:53;100169.03;;;7.94;42.84
54592;BME280;40488;48.558;18.150;2023-03-16T09:17:22;100170.75;;;7.95;42.58
54592;BME280;40488;48.558;18.150;2023-03-16T09:19:50;100169.47;;;8.20;42.47
54592;BME280;40488;48.558;18.150;2023-03-16T09:22:27;100172.91;;;8.24;42.46
54592;BME280;40488;48.558;18.150;2023-03-16T09:24:57;100178.81;;;8.21;41.20
54592;BME280;40488;48.558;18.150;2023-03-16T09:27:26;100185.13;;;8.43;41.87
54592;BME280;40488;48.558;18.150;2023-03-16T09:29:54;100178.53;;;8.54;40.99
54592;BME280;40488;48.558;18.150;2023-03-16T09:32:25;100183.56;;;8.51;41.11
54592;BME280;40488;48.558;18.150;2023-03-16T09:34:55;100185.38;;;8.58;40.13
54592;BME280;40488;48.558;18.150;2023-03-16T09:37:23;100173.81;;;8.78;40.67
54592;BME280;40488;48.558;18.150;2023-03-16T09:39:53;100179.16;;;8.96;39.99
54592;BME280;40488;48.558;18.150;2023-03-16T09:42:35;100178.56;;;9.15;40.14
54592;BME280;40488;48.558;18.150;2023-03-16T09:45:07;100173.88;;;9.47;40.82
54592;BME280;40488;48.558;18.150;2023-03-16T09:47:36;100179.53;;;9.26;40.04
54592;BME280;40488;48.558;18.150;2023-03-16T09:50:06;100184.75;;;9.35;40.13
54592;BME280;40488;48.558;18.150;2023-03-16T09:52:38;100187.56;;;9.57;40.33
54592;BME280;40488;48.558;18.150;2023-03-16T09:55:11;100185.31;;;9.87;40.51
54592;BME280;40488;48.558;18.150;2023-03-16T09:57:45;100193.78;;;9.84;39.94
54592;BME280;40488;48.558;18.150;2023-03-16T10:00:15;100197.25;;;9.88;40.23
54592;BME280;40488;48.558;18.150;2023-03-16T10:05:24;100184.78;;;10.14;39.70
54592;BME280;40488;48.558;18.150;2023-03-16T10:07:56;100185.53;;;10.08;39.08
54592;BME280;40488;48.558;18.150;2023-03-16T10:10:36;100183.13;;;10.20;39.06
54592;BME280;40488;48.558;18.150;2023-03-16T10:13:12;100185.00;;;10.42;39.52
54592;BME280;40488;48.558;18.150;2023-03-16T10:15:44;100188.53;;;10.56;39.08
54592;BME280;40488;48.558;18.150;2023-03-16T10:18:14;100196.94;;;10.43;38.83
54592;BME280;40488;48.558;18.150;2023-03-16T10:20:45;100186.84;;;10.58;39.42
54592;BME280;40488;48.558;18.150;2023-03-16T10:23:16;100187.75;;;10.66;38.93
54592;BME280;40488;48.558;18.150;2023-03-16T10:25:45;100180.94;;;10.62;39.10
54592;BME280;40488;48.558;18.150;2023-03-16T10:28:19;100185.19;;;10.63;38.21
54592;BME280;40488;48.558;18.150;2023-03-16T10:30:48;100183.44;;;10.58;38.37
54592;BME280;40488;48.558;18.150;2023-03-16T10:33:19;100186.78;;;10.49;38.43
54592;BME280;40488;48.558;18.150;2023-03-16T10:35:53;100184.94;;;10.32;38.29
54592;BME280;40488;48.558;18.150;2023-03-16T10:38:30;100181.53;;;10.31;38.09
54592;BME280;40488;48.558;18.150;2023-03-16T10:41:05;100183.88;;;10.10;37.18
54592;BME280;40488;48.558;18.150;2023-03-16T10:43:49;100178.66;;;9.98;38.01
54592;BME280;40488;48.558;18.150;2023-03-16T10:46:18;100174.69;;;10.24;38.07
54592;BME280;40488;48.558;18.150;2023-03-16T10:48:51;100178.38;;;10.65;38.62
54592;BME280;40488;48.558;18.150;2023-03-16T10:51:21;100168.28;;;10.84;37.75
54592;BME280;40488;48.558;18.150;2023-03-16T10:53:51;100180.00;;;10.56;37.15
54592;BME280;40488;48.558;18.150;2023-03-16T10:56:21;100114.28;;;10.22;37.53
54592;BME280;40488;48.558;18.150;2023-03-16T10:58:52;100172.38;;;10.57;37.00
54592;BME280;40488;48.558;18.150;2023-03-16T11:01:23;100181.00;;;10.77;36.83
54592;BME280;40488;48.558;18.150;2023-03-16T11:03:53;100175.97;;;10.90;37.03
54592;BME280;40488;48.558;18.150;2023-03-16T11:06:23;100176.75;;;10.73;36.54
54592;BME280;40488;48.558;18.150;2023-03-16T11:09:01;100173.13;;;10.44;35.83
54592;BME280;40488;48.558;18.150;2023-03-16T11:11:32;100168.91;;;10.49;35.85
54592;BME280;40488;48.558;18.150;2023-03-16T11:14:03;100165.53;;;10.50;36.19
54592;BME280;40488;48.558;18.150;2023-03-16T11:16:33;100182.59;;;10.57;35.72
54592;BME280;40488;48.558;18.150;2023-03-16T11:19:08;100184.22;;;10.49;35.34
54592;BME280;40488;48.558;18.150;2023-03-16T11:21:42;100175.75;;;10.50;35.66
54592;BME280;40488;48.558;18.150;2023-03-16T11:24:16;100168.03;;;10.49;35.57
54592;BME280;40488;48.558;18.150;2023-03-16T11:26:47;100181.63;;;10.45;34.99
54592;BME280;40488;48.558;18.150;2023-03-16T11:29:23;100176.38;;;10.24;34.63
54592;BME280;40488;48.558;18.150;2023-03-16T11:31:55;100171.19;;;10.16;35.29
54592;BME280;40488;48.558;18.150;2023-03-16T11:34:26;100176.75;;;10.73;36.44
54592;BME280;40488;48.558;18.150;2023-03-16T11:36:56;100170.00;;;10.85;35.43
54592;BME280;40488;48.558;18.150;2023-03-16T11:39:33;100160.56;;;10.71;34.58
54592;BME280;40488;48.558;18.150;2023-03-16T11:42:15;100169.22;;;10.92;35.67
54592;BME280;40488;48.558;18.150;2023-03-16T11:44:50;100160.78;;;11.08;35.01
54592;BME280;40488;48.558;18.150;2023-03-16T11:50:09;100147.09;;;11.00;34.90
54592;BME280;40488;48.558;18.150;2023-03-16T11:52:42;100159.06;;;11.08;34.55
54592;BME280;40488;48.558;18.150;2023-03-16T11:55:17;100150.50;;;10.99;33.61
54592;BME280;40488;48.558;18.150;2023-03-16T11:57:52;100163.06;;;10.65;33.64
54592;BME280;40488;48.558;18.150;2023-03-16T12:00:28;100155.56;;;10.93;34.40
54592;BME280;40488;48.558;18.150;2023-03-16T12:03:05;100147.97;;;11.05;34.11
54592;BME280;40488;48.558;18.150;2023-03-16T12:05:47;100148.78;;;10.98;33.96
54592;BME280;40488;48.558;18.150;2023-03-16T12:11:02;100138.66;;;11.13;33.49
54592;BME280;40488;48.558;18.150;2023-03-16T12:13:39;100140.22;;;10.90;34.31
54592;BME280;40488;48.558;18.150;2023-03-16T12:16:14;100150.50;;;10.99;34.22
54592;BME280;40488;48.558;18.150;2023-03-16T12:18:46;100151.50;;;11.31;34.42
54592;BME280;40488;48.558;18.150;2023-03-16T12:21:17;100138.81;;;11.67;34.25
54592;BME280;40488;48.558;18.150;2023-03-16T12:23:49;100138.81;;;11.61;33.30
54592;BME280;40488;48.558;18.150;2023-03-16T12:26:19;100140.53;;;11.65;33.72
54592;BME280;40488;48.558;18.150;2023-03-16T12:28:48;100137.91;;;11.42;32.86
54592;BME280;40488;48.558;18.150;2023-03-16T12:31:19;100141.28;;;11.29;33.13
54592;BME280;40488;48.558;18.150;2023-03-16T12:33:52;100141.16;;;11.02;33.39
54592;BME280;40488;48.558;18.150;2023-03-16T12:39:05;100129.22;;;10.94;33.43
54592;BME280;40488;48.558;18.150;2023-03-16T12:41:36;100131.75;;;10.95;33.31
54592;BME280;40488;48.558;18.150;2023-03-16T12:44:12;100136.03;;;10.98;33.42
54592;BME280;40488;48.558;18.150;2023-03-16T12:46:50;100131.91;;;11.30;33.10
54592;BME280;40488;48.558;18.150;2023-03-16T12:49:23;100131.97;;;11.54;33.00
54592;BME280;40488;48.558;18.150;2023-03-16T12:51:58;100138.94;;;12.06;33.48
54592;BME280;40488;48.558;18.150;2023-03-16T12:54:27;100135.50;;;12.03;32.95
54592;BME280;40488;48.558;18.150;2023-03-16T12:56:59;100133.75;;;11.70;32.39
54592;BME280;40488;48.558;18.150;2023-03-16T12:59:35;100133.66;;;11.43;32.85
54592;BME280;40488;48.558;18.150;2023-03-16T13:02:07;100134.38;;;11.06;32.36
54592;BME280;40488;48.558;18.150;2023-03-16T13:04:39;100126.69;;;11.03;32.36
54592;BME280;40488;48.558;18.150;2023-03-16T13:07:14;100136.09;;;11.10;32.32
54592;BME280;40488;48.558;18.150;2023-03-16T13:09:46;100131.03;;;11.25;32.28
54592;BME280;40488;48.558;18.150;2023-03-16T13:12:26;100138.72;;;11.31;32.89
54592;BME280;40488;48.558;18.150;2023-03-16T13:14:57;100130.13;;;11.12;32.75
54592;BME280;40488;48.558;18.150;2023-03-16T13:17:28;100135.31;;;11.29;32.57
54592;BME280;40488;48.558;18.150;2023-03-16T13:20:03;100131.03;;;11.25;32.38
54592;BME280;40488;48.558;18.150;2023-03-16T13:25:14;100132.00;;;11.60;32.65
54592;BME280;40488;48.558;18.150;2023-03-16T13:27:45;100118.34;;;11.55;32.66
54592;BME280;40488;48.558;18.150;2023-03-16T13:30:16;100123.50;;;11.61;33.07